8B0

Steven A Bean Municipal Airport

Rangeley, Maine, USA
METAR K8B0 260315Z AUTO 12005KT 10SM -RA OVC014 07/07 A2976 RMK AO2
Observed Flight Rules
Apr-26 @ 03:15 UTC (13 minutes ago) Marginal Visual Flight Rules
Wind Visibility Clouds Conditions
120° at 5 knots 10 miles
  • Overcast at 1,400' AGL
  • Light Rain
Temperatures Readings
Current 7°C / 45°F
Dewpoint 7°C / 45°F
Humidity 100%
Altimeter 29.76" Hg
Pressure 1008 hPa
METAR K8B0 260315Z AUTO 12005KT 10SM -RA OVC014 07/07 A2976 RMK AO2
Observed Flight Rules
Apr-26 @ 03:15 UTC
(13 minutes ago)
MVFR
Wind Visibility
120° at 5 knots 10 miles
Clouds
  • Overcast at 1,400' AGL
Conditions
  • Light Rain
Temperature Dewpoint
7°C / 45°F 7°C / 45°F
Humidity Altimeter Pressure
100% 29.76" Hg 1008 hPa